createdAt,value
2023-02-02T00:01:57.523Z,2.31
2023-02-02T00:04:26.142Z,2.37
2023-02-02T00:06:55.051Z,2.34
2023-02-02T00:09:22.248Z,2.36
2023-02-02T00:11:51.314Z,2.39
2023-02-02T00:14:19.702Z,2.39
2023-02-02T00:16:52.749Z,2.29
2023-02-02T00:19:22.703Z,2.45
2023-02-02T00:21:49.725Z,2.52
2023-02-02T00:24:18.487Z,2.53
2023-02-02T00:27:04.327Z,2.53
2023-02-02T00:29:34.619Z,2.55
2023-02-02T00:32:02.078Z,2.53
2023-02-02T00:39:58.946Z,2.60
2023-02-02T00:42:26.374Z,2.61
2023-02-02T00:45:12.545Z,2.64
2023-02-02T00:47:40.677Z,2.61
2023-02-02T00:50:08.993Z,2.52
2023-02-02T00:52:50.069Z,2.53
2023-02-02T00:55:23.974Z,2.64
2023-02-02T00:57:52.130Z,2.55
2023-02-02T01:00:26.085Z,2.45
2023-02-02T01:02:55.098Z,2.46
2023-02-02T01:05:23.408Z,2.56
2023-02-02T01:07:51.190Z,2.55
2023-02-02T01:10:19.370Z,2.62
2023-02-02T01:12:46.480Z,2.56
2023-02-02T01:15:14.477Z,2.57
2023-02-02T01:17:42.123Z,2.46
2023-02-02T01:20:15.606Z,2.42
2023-02-02T01:22:48.488Z,2.48
2023-02-02T01:25:15.636Z,2.45
2023-02-02T01:27:43.381Z,2.45
2023-02-02T01:30:12.450Z,2.38
2023-02-02T01:32:39.941Z,2.45
2023-02-02T01:35:08.625Z,2.50
2023-02-02T01:37:35.881Z,2.53
2023-02-02T01:40:04.324Z,2.53
2023-02-02T01:42:31.336Z,2.54
2023-02-02T01:45:28.543Z,2.57
2023-02-02T01:48:00.029Z,2.53
2023-02-02T01:50:33.703Z,2.63
2023-02-02T01:53:03.816Z,2.63
2023-02-02T01:55:33.209Z,2.76
2023-02-02T01:58:23.125Z,2.81
2023-02-02T02:00:52.931Z,2.82
2023-02-02T02:03:25.864Z,2.76
2023-02-02T02:06:16.684Z,2.63
2023-02-02T02:09:04.821Z,2.62
2023-02-02T02:11:38.517Z,2.75
2023-02-02T02:14:29.356Z,2.79
2023-02-02T02:17:27.578Z,2.72
2023-02-02T02:20:50.890Z,2.80
2023-02-02T02:24:08.748Z,2.80
2023-02-02T02:26:51.907Z,2.83
2023-02-02T02:29:24.146Z,2.91
2023-02-02T02:31:57.207Z,2.92
2023-02-02T02:34:43.199Z,2.79
2023-02-02T02:37:16.333Z,2.77
2023-02-02T02:40:08.943Z,2.82
2023-02-02T02:42:45.645Z,2.76
2023-02-02T02:45:14.398Z,2.74
2023-02-02T02:47:43.689Z,2.76
2023-02-02T02:50:12.329Z,2.68
2023-02-02T02:52:41.673Z,2.62
2023-02-02T02:55:12.318Z,2.62
2023-02-02T02:57:52.560Z,2.60
2023-02-02T03:00:42.874Z,2.72
2023-02-02T03:03:19.036Z,2.64
2023-02-02T03:05:52.510Z,2.74
2023-02-02T03:08:29.131Z,2.74
2023-02-02T03:16:26.402Z,2.69
2023-02-02T03:18:58.051Z,2.71
2023-02-02T03:21:25.337Z,2.68
2023-02-02T03:23:52.733Z,2.74
2023-02-02T03:26:20.302Z,2.75
2023-02-02T03:28:50.632Z,2.67
2023-02-02T03:31:19.065Z,2.70
2023-02-02T03:33:46.181Z,2.76
2023-02-02T03:36:13.567Z,2.88
2023-02-02T03:38:41.016Z,2.80
2023-02-02T03:41:08.625Z,2.85
2023-02-02T03:43:35.878Z,2.86
2023-02-02T03:46:07.122Z,2.90
2023-02-02T03:48:39.694Z,2.96
2023-02-02T03:51:12.740Z,3.01
2023-02-02T03:53:48.024Z,2.94
2023-02-02T03:56:15.981Z,2.98
2023-02-02T03:58:43.176Z,2.90
2023-02-02T04:01:15.090Z,2.94
2023-02-02T04:03:50.924Z,2.99
2023-02-02T04:06:20.162Z,2.98
2023-02-02T04:08:47.393Z,3.03
2023-02-02T04:11:14.872Z,2.96
2023-02-02T04:13:46.042Z,2.90
2023-02-02T04:16:14.423Z,2.83
2023-02-02T04:18:41.851Z,2.94
2023-02-02T04:21:10.089Z,2.87
2023-02-02T04:23:37.707Z,2.79
2023-02-02T04:26:05.559Z,2.80
2023-02-02T04:28:32.835Z,2.78
2023-02-02T04:31:01.379Z,2.79
2023-02-02T04:33:28.956Z,2.71
2023-02-02T04:35:56.033Z,2.69
2023-02-02T04:38:23.580Z,2.64
2023-02-02T04:40:51.148Z,2.60
2023-02-02T04:43:24.044Z,2.65
2023-02-02T04:45:59.227Z,2.60
2023-02-02T04:48:28.672Z,2.49
2023-02-02T04:51:04.243Z,2.52
2023-02-02T04:53:32.558Z,2.57
2023-02-02T04:56:14.630Z,2.56
2023-02-02T04:58:43.946Z,2.45
2023-02-02T05:01:20.191Z,2.50
2023-02-02T05:03:48.802Z,2.55
2023-02-02T05:06:17.894Z,2.59
2023-02-02T05:08:51.649Z,2.64
2023-02-02T05:11:22.118Z,2.66
2023-02-02T05:13:54.303Z,2.58
2023-02-02T05:16:24.125Z,2.62
2023-02-02T05:18:54.054Z,2.61
2023-02-02T05:21:23.054Z,2.56
2023-02-02T05:23:50.501Z,2.49
2023-02-02T05:26:23.791Z,2.49
2023-02-02T05:28:51.136Z,2.47
2023-02-02T05:31:18.931Z,2.54
2023-02-02T05:33:48.680Z,2.59
2023-02-02T05:36:16.018Z,2.56
2023-02-02T05:38:49.607Z,2.44
2023-02-02T05:41:17.085Z,2.61
2023-02-02T05:43:44.487Z,2.59
2023-02-02T05:46:13.174Z,2.66
2023-02-02T05:48:40.370Z,2.76
2023-02-02T05:51:16.165Z,2.67
2023-02-02T05:53:45.362Z,2.67
2023-02-02T05:56:16.065Z,2.70
2023-02-02T05:58:44.772Z,2.75
2023-02-02T06:01:12.048Z,2.70
2023-02-02T06:03:41.791Z,2.77
2023-02-02T06:06:09.145Z,2.86
2023-02-02T06:08:38.497Z,2.82
2023-02-02T06:11:12.785Z,2.88
2023-02-02T06:13:41.234Z,2.95
2023-02-02T06:16:09.578Z,2.94
2023-02-02T06:18:43.192Z,2.91
2023-02-02T06:21:12.972Z,2.94
2023-02-02T06:23:46.167Z,2.94
2023-02-02T06:26:14.429Z,3.01
2023-02-02T06:28:43.603Z,2.96
2023-02-02T06:31:12.155Z,2.90
2023-02-02T06:33:40.700Z,2.99
2023-02-02T06:36:08.286Z,2.92
2023-02-02T06:38:35.596Z,2.89
2023-02-02T06:41:03.899Z,2.96
2023-02-02T06:43:31.608Z,2.92
2023-02-02T06:45:59.126Z,2.93
2023-02-02T06:48:27.678Z,2.95
2023-02-02T06:50:57.986Z,2.96
2023-02-02T06:53:26.924Z,2.95
2023-02-02T06:56:02.083Z,2.96
2023-02-02T06:58:31.262Z,2.99
2023-02-02T07:01:06.921Z,3.04
2023-02-02T07:03:34.931Z,3.03
2023-02-02T07:06:20.222Z,3.08
2023-02-02T07:09:02.312Z,3.05
2023-02-02T07:11:35.332Z,2.95
2023-02-02T07:14:08.616Z,2.91
2023-02-02T07:16:42.207Z,2.95
2023-02-02T07:19:09.919Z,3.00
2023-02-02T07:21:37.068Z,2.96
2023-02-02T07:24:06.157Z,2.94
2023-02-02T07:26:35.135Z,3.00
2023-02-02T07:29:04.823Z,2.97
2023-02-02T07:31:34.795Z,2.98
2023-02-02T07:34:03.099Z,2.99
2023-02-02T07:36:30.684Z,3.07
2023-02-02T07:39:05.384Z,3.03
2023-02-02T07:41:35.776Z,3.07
2023-02-02T07:44:06.276Z,3.15
2023-02-02T07:46:33.880Z,3.33
2023-02-02T07:49:01.155Z,3.47
2023-02-02T07:51:28.569Z,3.46
2023-02-02T07:53:58.706Z,3.41
2023-02-02T07:56:30.453Z,3.47
2023-02-02T07:58:58.333Z,3.47
2023-02-02T08:01:27.668Z,3.36
2023-02-02T08:03:59.384Z,3.23
2023-02-02T08:06:37.673Z,3.27
2023-02-02T08:09:09.011Z,3.14
2023-02-02T08:11:38.063Z,3.23
2023-02-02T08:14:05.591Z,3.25
2023-02-02T08:16:34.311Z,3.13
2023-02-02T08:19:01.819Z,3.30
2023-02-02T08:21:28.862Z,3.39
2023-02-02T08:23:57.533Z,3.45
2023-02-02T08:26:26.987Z,3.52
2023-02-02T08:28:59.811Z,3.54
2023-02-02T08:31:39.016Z,3.57
2023-02-02T08:34:06.724Z,3.54
2023-02-02T08:36:35.754Z,3.57
2023-02-02T08:39:05.133Z,3.57
2023-02-02T08:41:33.880Z,3.55
2023-02-02T08:44:00.953Z,3.56
2023-02-02T08:46:28.159Z,3.57
2023-02-02T08:48:55.410Z,3.63
2023-02-02T08:51:22.402Z,3.65
2023-02-02T08:53:49.867Z,3.66
2023-02-02T08:56:20.301Z,3.69
2023-02-02T08:58:54.952Z,3.69
2023-02-02T09:01:24.724Z,3.69
2023-02-02T09:04:06.880Z,3.74
2023-02-02T09:06:37.604Z,3.68
2023-02-02T09:09:07.083Z,3.69
2023-02-02T09:11:35.359Z,3.69
2023-02-02T09:14:03.416Z,3.62
2023-02-02T09:16:30.885Z,3.72
2023-02-02T09:18:58.403Z,3.73
2023-02-02T09:21:26.704Z,3.64
2023-02-02T09:23:55.128Z,3.69
2023-02-02T09:26:28.462Z,3.76
2023-02-02T09:28:58.062Z,3.76
2023-02-02T09:31:27.179Z,3.85
2023-02-02T09:33:54.635Z,3.93
2023-02-02T09:36:23.908Z,3.94
2023-02-02T09:38:53.377Z,4.10
2023-02-02T09:41:38.590Z,4.11
2023-02-02T09:44:18.337Z,4.09
2023-02-02T09:47:12.314Z,3.97
2023-02-02T09:50:36.680Z,4.00
2023-02-02T09:53:54.807Z,3.76
2023-02-02T09:56:46.301Z,3.63
2023-02-02T09:59:22.781Z,3.64
2023-02-02T10:01:55.724Z,3.72
2023-02-02T10:04:36.535Z,3.70
2023-02-02T10:07:31.419Z,3.72
2023-02-02T10:10:13.453Z,3.75
2023-02-02T10:13:03.235Z,4.18
2023-02-02T10:15:43.549Z,5.12
2023-02-02T10:18:41.266Z,4.72
2023-02-02T10:21:17.197Z,4.27
2023-02-02T10:23:46.348Z,4.19
2023-02-02T10:26:19.367Z,4.32
2023-02-02T10:29:03.201Z,4.82
2023-02-02T10:31:43.366Z,4.61
2023-02-02T10:34:15.965Z,4.04
2023-02-02T10:37:16.879Z,3.70
2023-02-02T10:40:04.110Z,3.84
2023-02-02T10:43:09.114Z,4.82
2023-02-02T10:45:39.299Z,5.06
2023-02-02T10:48:17.515Z,5.48
2023-02-02T10:50:54.611Z,6.50
2023-02-02T10:53:26.207Z,6.72
2023-02-02T10:56:07.287Z,5.94
2023-02-02T10:58:47.792Z,4.59
2023-02-02T11:01:18.484Z,4.71
2023-02-02T11:03:45.732Z,5.17
2023-02-02T11:06:32.642Z,5.73
2023-02-02T11:09:01.197Z,6.02
2023-02-02T11:11:38.697Z,5.64
2023-02-02T11:14:08.730Z,5.73
2023-02-02T11:16:44.264Z,6.16
2023-02-02T11:19:17.282Z,5.50
2023-02-02T11:21:54.884Z,5.16
2023-02-02T11:24:25.449Z,4.91
2023-02-02T11:27:00.208Z,4.70
2023-02-02T11:29:32.850Z,4.81
2023-02-02T11:32:33.227Z,4.89
2023-02-02T11:35:04.560Z,4.91
2023-02-02T11:37:37.050Z,4.63
2023-02-02T11:40:34.669Z,4.37
2023-02-02T11:43:44.568Z,4.28
2023-02-02T11:46:26.059Z,4.03
2023-02-02T11:49:08.672Z,3.98
2023-02-02T11:51:35.940Z,3.70
2023-02-02T11:54:08.167Z,3.59
2023-02-02T11:56:37.746Z,3.50
2023-02-02T11:59:06.351Z,3.55
2023-02-02T12:01:44.427Z,3.78
2023-02-02T12:04:17.652Z,3.87
2023-02-02T12:06:46.039Z,3.74
2023-02-02T12:09:17.428Z,3.72
2023-02-02T12:12:15.929Z,3.65
2023-02-02T12:15:04.781Z,3.72
2023-02-02T12:17:39.823Z,3.61
2023-02-02T12:20:18.736Z,3.58
2023-02-02T12:23:13.632Z,3.58
2023-02-02T12:26:13.072Z,3.49
2023-02-02T12:29:08.263Z,3.41
2023-02-02T12:31:38.704Z,3.10
2023-02-02T12:34:25.756Z,3.09
2023-02-02T12:37:05.098Z,3.14
2023-02-02T12:39:51.648Z,3.07
2023-02-02T12:42:52.930Z,3.04
2023-02-02T12:45:50.008Z,3.04
2023-02-02T12:48:40.795Z,3.13
2023-02-02T12:51:39.352Z,3.22
2023-02-02T12:54:51.884Z,3.22
2023-02-02T12:57:37.920Z,3.22
2023-02-02T13:00:27.213Z,3.14
2023-02-02T13:03:23.211Z,3.17
2023-02-02T13:08:42.223Z,3.80
2023-02-02T13:11:30.246Z,3.81
2023-02-02T13:14:14.142Z,3.59
2023-02-02T13:16:48.701Z,3.31
2023-02-02T13:19:43.084Z,3.14
2023-02-02T13:22:17.633Z,3.16
2023-02-02T13:24:48.462Z,3.65
2023-02-02T13:27:20.029Z,3.94
2023-02-02T13:30:00.412Z,4.18
2023-02-02T13:32:34.762Z,4.25
2023-02-02T13:35:20.872Z,4.03
2023-02-02T13:38:01.291Z,3.98
2023-02-02T13:40:32.858Z,3.79
2023-02-02T13:43:19.385Z,3.84
2023-02-02T13:46:14.870Z,3.79
2023-02-02T13:49:20.212Z,3.78
2023-02-02T13:51:57.377Z,3.70
2023-02-02T13:55:01.490Z,3.55
2023-02-02T13:57:36.616Z,3.45
2023-02-02T14:00:58.917Z,3.37
2023-02-02T14:03:40.382Z,3.20
2023-02-02T14:06:17.195Z,3.17
2023-02-02T14:08:49.544Z,3.01
2023-02-02T14:11:27.687Z,2.82
2023-02-02T14:14:18.254Z,2.78
2023-02-02T14:16:49.246Z,2.49
2023-02-02T14:19:41.495Z,2.29
2023-02-02T14:22:10.346Z,2.24
2023-02-02T14:24:42.595Z,2.32
2023-02-02T14:27:09.812Z,2.36
2023-02-02T14:29:57.317Z,2.40
2023-02-02T14:32:25.182Z,2.49
2023-02-02T14:35:11.202Z,2.59
2023-02-02T14:38:04.478Z,2.66
2023-02-02T14:41:00.658Z,2.68
2023-02-02T14:43:45.171Z,2.66
2023-02-02T14:46:15.881Z,2.67
2023-02-02T14:49:15.987Z,2.83
2023-02-02T14:51:53.406Z,3.40
2023-02-02T14:54:31.328Z,3.53
2023-02-02T14:57:28.952Z,3.31
2023-02-02T15:00:00.060Z,3.04
2023-02-02T15:02:36.347Z,2.95
2023-02-02T15:05:34.492Z,3.00
2023-02-02T15:08:26.801Z,2.91
2023-02-02T15:11:00.564Z,2.69
2023-02-02T15:13:37.884Z,2.50
2023-02-02T15:16:21.969Z,2.44
2023-02-02T15:19:15.059Z,2.26
2023-02-02T15:21:47.992Z,2.11
2023-02-02T15:24:27.458Z,2.05
2023-02-02T15:26:58.668Z,2.09
2023-02-02T15:29:38.328Z,2.05
2023-02-02T15:32:07.613Z,2.04
2023-02-02T15:34:47.361Z,2.06
2023-02-02T15:37:27.294Z,2.11
2023-02-02T15:39:58.351Z,2.12
2023-02-02T15:42:55.933Z,2.18
2023-02-02T15:45:29.719Z,2.18
2023-02-02T15:48:13.149Z,2.11
2023-02-02T15:50:46.674Z,2.12
2023-02-02T15:53:22.311Z,2.13
2023-02-02T15:55:57.917Z,2.01
2023-02-02T15:58:32.560Z,2.00
2023-02-02T16:01:15.021Z,2.01
2023-02-02T16:04:01.865Z,1.97
2023-02-02T16:06:30.432Z,1.90
2023-02-02T16:08:57.869Z,1.94
2023-02-02T16:11:25.155Z,1.88
2023-02-02T16:14:03.661Z,1.86
2023-02-02T16:16:38.950Z,1.82
2023-02-02T16:19:09.561Z,1.80
2023-02-02T16:21:42.681Z,1.83
2023-02-02T16:24:19.384Z,1.80
2023-02-02T16:26:46.799Z,1.82
2023-02-02T16:29:17.671Z,1.86
2023-02-02T16:31:47.365Z,1.87
2023-02-02T16:34:40.740Z,1.88
2023-02-02T16:37:12.365Z,1.82
2023-02-02T16:39:39.936Z,1.88
2023-02-02T16:42:29.252Z,1.78
2023-02-02T16:44:59.542Z,1.84
2023-02-02T16:47:36.171Z,1.81
2023-02-02T16:50:09.721Z,1.72
2023-02-02T16:52:57.459Z,1.70
2023-02-02T16:55:36.449Z,1.65
2023-02-02T16:58:22.187Z,1.63
2023-02-02T17:01:16.096Z,1.57
2023-02-02T17:03:55.536Z,1.47
2023-02-02T17:06:45.652Z,1.58
2023-02-02T17:09:36.249Z,1.63
2023-02-02T17:12:33.169Z,1.57
2023-02-02T17:15:19.383Z,1.59
2023-02-02T17:17:48.806Z,1.61
2023-02-02T17:20:24.211Z,1.64
2023-02-02T17:23:02.005Z,1.65
2023-02-02T17:25:35.588Z,1.61
2023-02-02T17:28:06.741Z,1.62
2023-02-02T17:30:36.370Z,1.58
2023-02-02T17:33:04.327Z,1.53
2023-02-02T17:35:47.238Z,1.56
2023-02-02T17:38:19.739Z,1.61
2023-02-02T17:40:47.847Z,1.62
2023-02-02T17:43:16.441Z,1.69
2023-02-02T17:45:46.221Z,1.67
2023-02-02T17:48:15.290Z,1.58
2023-02-02T17:50:44.216Z,1.52
2023-02-02T17:53:20.569Z,1.43
2023-02-02T17:55:51.744Z,1.45
2023-02-02T17:58:21.184Z,1.31
2023-02-02T18:00:54.305Z,1.26
2023-02-02T18:03:28.853Z,1.20
2023-02-02T18:06:00.894Z,1.20
2023-02-02T18:08:30.241Z,1.17
2023-02-02T18:10:59.660Z,1.10
2023-02-02T18:13:26.946Z,1.01
2023-02-02T18:15:56.470Z,1.04
2023-02-02T18:18:27.686Z,1.02
2023-02-02T18:21:01.651Z,0.94
2023-02-02T18:23:31.268Z,0.86
2023-02-02T18:26:12.700Z,0.85
2023-02-02T18:28:41.503Z,0.78
2023-02-02T18:31:14.178Z,0.82
2023-02-02T18:33:44.283Z,0.82
2023-02-02T18:36:14.928Z,0.82
2023-02-02T18:38:47.900Z,0.83
2023-02-02T18:41:18.799Z,0.77
2023-02-02T18:43:46.171Z,0.78
2023-02-02T18:46:16.052Z,0.74
2023-02-02T18:48:45.834Z,0.78
2023-02-02T18:51:16.910Z,0.74
2023-02-02T18:53:46.096Z,0.71
2023-02-02T18:56:15.652Z,0.71
2023-02-02T18:58:45.324Z,0.66
2023-02-02T19:01:19.050Z,0.63
2023-02-02T19:03:57.583Z,0.59
2023-02-02T19:06:45.563Z,0.56
2023-02-02T19:09:14.767Z,0.52
2023-02-02T19:11:45.356Z,0.51
2023-02-02T19:14:14.272Z,0.51
2023-02-02T19:16:44.052Z,0.46
2023-02-02T19:19:35.116Z,0.48
2023-02-02T19:22:38.025Z,0.46
2023-02-02T19:25:12.739Z,0.44
2023-02-02T19:27:41.872Z,0.44
2023-02-02T19:30:23.350Z,0.44
2023-02-02T19:32:51.585Z,0.41
2023-02-02T19:35:23.119Z,0.43
2023-02-02T19:37:57.281Z,0.43
2023-02-02T19:40:31.546Z,0.40
2023-02-02T19:43:27.910Z,0.48
2023-02-02T19:46:00.416Z,0.48
2023-02-02T19:48:35.698Z,0.54
2023-02-02T19:51:35.354Z,0.53
2023-02-02T19:54:03.832Z,0.53
2023-02-02T19:56:39.884Z,0.54
2023-02-02T19:59:19.588Z,0.60
2023-02-02T20:01:51.028Z,0.60
2023-02-02T20:04:20.280Z,0.61
2023-02-02T20:06:58.922Z,0.67
2023-02-02T20:09:35.158Z,0.64
2023-02-02T20:12:28.255Z,0.63
2023-02-02T20:14:57.680Z,0.61
2023-02-02T20:17:33.191Z,0.64
2023-02-02T20:20:00.721Z,0.66
2023-02-02T20:22:33.863Z,0.69
2023-02-02T20:25:07.076Z,0.71
2023-02-02T20:27:35.396Z,0.76
2023-02-02T20:30:25.517Z,0.76
2023-02-02T20:32:58.882Z,0.80
2023-02-02T20:35:56.557Z,0.81
2023-02-02T20:38:35.180Z,0.79
2023-02-02T20:41:08.868Z,0.74
2023-02-02T20:43:36.256Z,0.74
2023-02-02T20:46:04.080Z,0.73
2023-02-02T20:48:34.578Z,0.68
2023-02-02T20:51:02.355Z,0.74
2023-02-02T20:53:29.641Z,0.71
2023-02-02T20:56:00.097Z,0.74
2023-02-02T20:58:27.742Z,0.73
2023-02-02T21:04:20.318Z,0.69
2023-02-02T21:06:49.585Z,0.68
2023-02-02T21:09:18.764Z,0.68
2023-02-02T21:11:46.507Z,0.70
2023-02-02T21:14:15.251Z,0.68
2023-02-02T21:16:57.283Z,0.74
2023-02-02T21:19:29.719Z,0.77
2023-02-02T21:21:57.253Z,0.81
2023-02-02T21:24:25.765Z,0.82
2023-02-02T21:26:54.089Z,0.79
2023-02-02T21:29:25.660Z,0.67
2023-02-02T21:31:59.161Z,0.68
2023-02-02T21:34:29.662Z,0.73
2023-02-02T21:36:58.522Z,0.67
2023-02-02T21:39:35.636Z,0.68
2023-02-02T21:42:13.763Z,0.62
2023-02-02T21:44:54.000Z,0.61
2023-02-02T21:47:34.451Z,0.54
2023-02-02T21:50:19.989Z,0.59
2023-02-02T21:52:47.387Z,0.54
2023-02-02T21:55:34.892Z,0.41
2023-02-02T21:58:28.008Z,0.26
2023-02-02T22:01:02.797Z,0.00
2023-02-02T22:03:35.045Z,0.14
2023-02-02T22:06:18.222Z,0.14
2023-02-02T22:08:45.434Z,0.17
2023-02-02T22:11:29.744Z,0.16
2023-02-02T22:14:13.011Z,0.10
2023-02-02T22:16:45.562Z,0.01
2023-02-02T22:19:24.847Z,-0.07
2023-02-02T22:21:53.016Z,-0.09
2023-02-02T22:24:21.576Z,-0.28
2023-02-02T22:26:49.258Z,-0.39
2023-02-02T22:29:21.422Z,-0.32
2023-02-02T22:31:48.741Z,-0.39
2023-02-02T22:34:16.173Z,-0.40
2023-02-02T22:36:43.627Z,-0.43
2023-02-02T22:39:11.089Z,-0.65
2023-02-02T22:41:38.449Z,-0.63
2023-02-02T22:44:06.250Z,-0.58
2023-02-02T22:46:33.466Z,-0.66
2023-02-02T22:49:00.965Z,-0.70
2023-02-02T22:51:28.355Z,-0.63
2023-02-02T22:53:55.834Z,-0.63
2023-02-02T22:56:23.288Z,-0.50
2023-02-02T22:58:50.779Z,-0.59
2023-02-02T23:01:18.192Z,-0.55
2023-02-02T23:03:47.323Z,-0.57
2023-02-02T23:06:14.732Z,-0.55
2023-02-02T23:08:42.080Z,-0.57
2023-02-02T23:11:11.799Z,-0.61
2023-02-02T23:13:44.694Z,-0.64
2023-02-02T23:16:12.223Z,-0.67
2023-02-02T23:18:40.777Z,-0.65
2023-02-02T23:21:10.134Z,-0.69
2023-02-02T23:23:37.523Z,-0.75
2023-02-02T23:26:04.606Z,-0.75
2023-02-02T23:28:37.185Z,-0.77
2023-02-02T23:31:04.726Z,-0.84
2023-02-02T23:33:32.490Z,-0.80
2023-02-02T23:36:00.135Z,-0.79
2023-02-02T23:38:27.231Z,-0.71
2023-02-02T23:40:54.407Z,-0.70
2023-02-02T23:43:22.806Z,-0.61
2023-02-02T23:45:51.369Z,-0.67
2023-02-02T23:48:19.909Z,-0.71
2023-02-02T23:51:07.173Z,-0.69
2023-02-02T23:53:36.595Z,-0.64
2023-02-02T23:56:03.738Z,-0.46
2023-02-02T23:58:31.270Z,-0.31
